Pleasant Grove, Utah
Current Conditions -  °F | °C
As of 2:51 PM on Sunday 23 Nov 2014 (Local Time) from KPVU Reporting Station
Scattered Clouds Scattered Clouds  
Wind Chill: 30°   Ceiling: Unl
Heat Index: 37°   Visibility: 15mi
Dew Point: 19°   Wind: 12mph
Humidity: 48%   Direction: 320°NW
Pressure: 30.23"   Gusts: NA
Location:  40.36°N, 111.73°W
Report Text: KPVU 232151Z 32010KT 15SM SCT060 03/M07 A3023
Loading
Personal Weather Stations






























Interactive Weather Map New forecast layout! Learn more

10-Day Weather Forecast

Advertisements
Track Severe Weather on mobile